createdAt,value
2018-12-20T00:01:50.953Z,9.67
2018-12-20T00:04:19.384Z,8.27
2018-12-20T00:06:47.722Z,7.50
2018-12-20T00:09:16.083Z,9.20
2018-12-20T00:11:44.433Z,8.03
2018-12-20T00:14:12.599Z,6.80
2018-12-20T00:16:40.727Z,7.27
2018-12-20T00:19:09.025Z,8.05
2018-12-20T00:21:37.250Z,7.73
2018-12-20T00:24:05.454Z,7.80
2018-12-20T00:26:33.670Z,8.23
2018-12-20T00:29:01.975Z,8.70
2018-12-20T00:31:30.283Z,10.00
2018-12-20T00:33:58.699Z,7.40
2018-12-20T00:36:26.974Z,8.97
2018-12-20T00:38:55.565Z,6.33
2018-12-20T00:41:24.124Z,7.03
2018-12-20T00:43:52.263Z,9.10
2018-12-20T00:46:20.493Z,12.13
2018-12-20T00:48:49.106Z,9.07
2018-12-20T00:51:17.414Z,6.97
2018-12-20T00:53:45.676Z,10.60
2018-12-20T00:56:13.915Z,9.07
2018-12-20T00:58:42.390Z,8.10
2018-12-20T01:01:10.665Z,7.50
2018-12-20T01:03:38.967Z,9.07
2018-12-20T01:06:07.490Z,7.93
2018-12-20T01:08:36.008Z,7.57
2018-12-20T01:11:04.236Z,11.07
2018-12-20T01:13:32.586Z,7.30
2018-12-20T01:16:00.934Z,9.57
2018-12-20T01:18:29.407Z,8.20
2018-12-20T01:20:57.737Z,9.13
2018-12-20T01:23:26.108Z,8.90
2018-12-20T01:25:54.386Z,11.67
2018-12-20T01:28:22.877Z,8.15
2018-12-20T01:30:51.205Z,9.40
2018-12-20T01:33:19.539Z,9.67
2018-12-20T01:35:47.901Z,10.17
2018-12-20T01:38:16.747Z,6.10
2018-12-20T01:40:45.235Z,9.20
2018-12-20T01:43:14.333Z,7.50
2018-12-20T01:45:42.668Z,8.60
2018-12-20T01:48:11.100Z,5.50
2018-12-20T01:50:39.388Z,7.50
2018-12-20T01:53:07.602Z,8.70
2018-12-20T01:55:35.799Z,6.10
2018-12-20T01:58:04.237Z,8.60
2018-12-20T02:00:32.659Z,7.57
2018-12-20T02:03:01.117Z,8.80
2018-12-20T02:05:29.467Z,6.43
2018-12-20T02:07:57.991Z,7.90
2018-12-20T02:10:26.450Z,8.00
2018-12-20T02:12:54.691Z,8.27
2018-12-20T02:15:22.967Z,7.00
2018-12-20T02:17:51.552Z,7.77
2018-12-20T02:20:19.815Z,9.20
2018-12-20T02:22:48.113Z,8.77
2018-12-20T02:25:16.378Z,9.80
2018-12-20T02:27:45.204Z,7.57
2018-12-20T02:30:13.793Z,9.87
2018-12-20T02:32:42.094Z,7.37
2018-12-20T02:35:10.294Z,7.57
2018-12-20T02:37:38.799Z,9.63
2018-12-20T02:40:07.478Z,7.42
2018-12-20T02:42:35.880Z,10.27
2018-12-20T02:45:10.818Z,6.33
2018-12-20T02:47:35.526Z,9.40
2018-12-20T02:50:04.379Z,7.73
2018-12-20T02:52:32.793Z,9.67
2018-12-20T02:55:01.073Z,6.70
2018-12-20T02:57:29.519Z,7.27
2018-12-20T02:59:57.689Z,7.90
2018-12-20T03:02:25.900Z,7.43
2018-12-20T03:04:54.266Z,13.03
2018-12-20T03:07:22.819Z,8.07
2018-12-20T03:09:50.972Z,7.60
2018-12-20T03:12:19.482Z,7.20
2018-12-20T03:14:47.697Z,10.40
2018-12-20T03:17:15.980Z,8.00
2018-12-20T03:19:44.189Z,7.43
2018-12-20T03:22:12.544Z,7.60
2018-12-20T03:24:46.498Z,7.73
2018-12-20T03:27:14.939Z,9.43
2018-12-20T03:29:44.894Z,7.80
2018-12-20T03:32:13.534Z,6.73
2018-12-20T03:34:41.745Z,7.47
2018-12-20T03:37:10.243Z,7.73
2018-12-20T03:39:38.402Z,9.70
2018-12-20T03:42:07.191Z,8.13
2018-12-20T03:44:36.294Z,9.33
2018-12-20T03:47:05.013Z,9.27
2018-12-20T03:49:33.665Z,9.97
2018-12-20T03:52:02.172Z,9.83
2018-12-20T03:54:30.915Z,10.07
2018-12-20T03:56:59.668Z,7.93
2018-12-20T03:59:27.913Z,8.47
2018-12-20T04:01:56.308Z,8.77
2018-12-20T04:04:24.675Z,7.70
2018-12-20T04:06:53.269Z,10.40
2018-12-20T04:09:21.815Z,7.43
2018-12-20T04:11:50.959Z,8.63
2018-12-20T04:14:19.197Z,7.58
2018-12-20T04:16:47.512Z,10.17
2018-12-20T04:19:15.949Z,8.27
2018-12-20T04:21:44.217Z,10.87
2018-12-20T04:24:12.611Z,9.03
2018-12-20T04:26:41.091Z,8.17
2018-12-20T04:29:09.950Z,7.73
2018-12-20T04:31:38.377Z,7.97
2018-12-20T04:34:06.587Z,7.20
2018-12-20T04:36:34.903Z,9.83
2018-12-20T04:39:05.398Z,10.73
2018-12-20T04:41:33.809Z,11.23
2018-12-20T04:44:02.222Z,7.77
2018-12-20T04:46:30.458Z,10.17
2018-12-20T04:48:59.088Z,10.27
2018-12-20T04:51:27.457Z,9.47
2018-12-20T04:53:55.738Z,8.37
2018-12-20T04:56:24.175Z,9.20
2018-12-20T04:58:52.636Z,9.27
2018-12-20T05:01:20.949Z,10.00
2018-12-20T05:03:49.311Z,6.80
2018-12-20T05:06:17.576Z,11.10
2018-12-20T05:08:46.175Z,7.60
2018-12-20T05:11:14.703Z,8.43
2018-12-20T05:13:43.082Z,6.67
2018-12-20T05:16:11.284Z,7.90
2018-12-20T05:18:39.770Z,6.97
2018-12-20T05:21:08.144Z,11.43
2018-12-20T05:23:36.477Z,7.70
2018-12-20T05:26:04.750Z,6.63
2018-12-20T05:28:33.349Z,9.00
2018-12-20T05:31:01.801Z,8.17
2018-12-20T05:33:30.259Z,7.53
2018-12-20T05:35:59.261Z,6.77
2018-12-20T05:38:27.696Z,8.37
2018-12-20T05:40:56.166Z,8.57
2018-12-20T05:43:24.485Z,8.03
2018-12-20T05:45:52.677Z,8.43
2018-12-20T05:48:21.020Z,9.27
2018-12-20T05:50:50.358Z,9.50
2018-12-20T05:53:19.495Z,7.27
2018-12-20T05:55:49.209Z,7.97
2018-12-20T05:58:18.907Z,7.27
2018-12-20T06:00:47.265Z,8.37
2018-12-20T06:03:15.663Z,7.83
2018-12-20T06:05:44.165Z,9.10
2018-12-20T06:08:14.532Z,7.23
2018-12-20T06:10:44.426Z,8.60
2018-12-20T06:13:14.141Z,7.27
2018-12-20T06:15:42.499Z,7.77
2018-12-20T06:18:12.101Z,8.80
2018-12-20T06:20:40.290Z,10.90
2018-12-20T06:23:08.433Z,9.00
2018-12-20T06:25:36.579Z,9.70
2018-12-20T06:28:04.906Z,14.60
2018-12-20T06:30:33.336Z,11.00
2018-12-20T06:33:02.770Z,10.43
2018-12-20T06:35:32.530Z,9.93
2018-12-20T06:38:00.913Z,9.33
2018-12-20T06:40:29.038Z,10.10
2018-12-20T06:42:57.192Z,9.77
2018-12-20T06:45:25.729Z,13.07
2018-12-20T06:47:54.114Z,11.77
2018-12-20T06:50:23.193Z,10.33
2018-12-20T06:52:51.348Z,13.07
2018-12-20T06:55:20.077Z,10.60
2018-12-20T06:57:48.476Z,11.73
2018-12-20T07:00:16.799Z,10.63
2018-12-20T07:02:47.667Z,10.03
2018-12-20T07:05:15.893Z,11.93
2018-12-20T07:07:44.247Z,13.77
2018-12-20T07:10:12.480Z,14.45
2018-12-20T07:12:40.778Z,11.47
2018-12-20T07:15:09.456Z,12.70
2018-12-20T07:17:37.812Z,10.50
2018-12-20T07:20:06.070Z,12.43
2018-12-20T07:22:34.291Z,12.63
2018-12-20T07:25:02.529Z,10.50
2018-12-20T07:27:30.955Z,11.07
2018-12-20T07:29:59.101Z,12.63
2018-12-20T07:32:27.257Z,11.20
2018-12-20T07:34:55.472Z,11.85
2018-12-20T07:37:24.334Z,10.23
2018-12-20T07:39:52.677Z,11.67
2018-12-20T07:42:21.000Z,18.80
2018-12-20T07:44:49.164Z,11.77
2018-12-20T07:47:17.483Z,11.80
2018-12-20T07:49:45.697Z,11.43
2018-12-20T07:52:14.059Z,12.23
2018-12-20T07:54:42.292Z,13.97
2018-12-20T07:57:10.609Z,13.00
2018-12-20T07:59:38.767Z,12.87
2018-12-20T08:02:07.264Z,14.40
2018-12-20T08:04:35.599Z,11.57
2018-12-20T08:07:04.029Z,13.50
2018-12-20T08:09:32.201Z,11.70
2018-12-20T08:12:00.341Z,12.20
2018-12-20T08:14:28.574Z,16.53
2018-12-20T08:17:00.359Z,10.77
2018-12-20T08:19:36.011Z,13.90
2018-12-20T08:22:05.376Z,14.10
2018-12-20T08:24:33.620Z,15.70
2018-12-20T08:27:02.031Z,13.17
2018-12-20T08:29:30.274Z,11.23
2018-12-20T08:31:58.501Z,12.90
2018-12-20T08:34:26.765Z,13.37
2018-12-20T08:36:55.095Z,15.57
2018-12-20T08:39:23.459Z,16.00
2018-12-20T08:41:51.599Z,10.97
2018-12-20T08:44:19.809Z,11.27
2018-12-20T08:46:54.306Z,11.67
2018-12-20T08:49:18.193Z,13.80
2018-12-20T08:51:49.108Z,11.27
2018-12-20T08:54:16.611Z,11.03
2018-12-20T08:56:44.751Z,9.73
2018-12-20T08:59:13.118Z,11.93
2018-12-20T09:01:41.500Z,13.83
2018-12-20T09:04:09.664Z,13.40
2018-12-20T09:06:37.998Z,12.30
2018-12-20T09:09:07.197Z,11.70
2018-12-20T09:11:35.369Z,11.50
2018-12-20T09:14:03.602Z,11.57
2018-12-20T09:16:31.780Z,13.90
2018-12-20T09:19:00.019Z,13.83
2018-12-20T09:21:28.188Z,10.67
2018-12-20T09:23:56.352Z,11.33
2018-12-20T09:26:24.513Z,9.33
2018-12-20T09:28:53.360Z,11.97
2018-12-20T09:31:21.725Z,10.77
2018-12-20T09:33:49.893Z,15.57
2018-12-20T09:36:18.165Z,10.00
2018-12-20T09:38:46.564Z,10.33
2018-12-20T09:41:14.729Z,11.80
2018-12-20T09:43:42.893Z,10.50
2018-12-20T09:46:11.107Z,8.93
2018-12-20T09:48:39.436Z,8.63
2018-12-20T09:51:07.718Z,10.93
2018-12-20T09:53:35.880Z,8.87
2018-12-20T09:56:04.076Z,10.23
2018-12-20T09:58:32.459Z,9.33
2018-12-20T10:01:00.676Z,6.50
2018-12-20T10:03:28.872Z,8.40
2018-12-20T10:05:57.080Z,8.57
2018-12-20T10:08:25.379Z,12.43
2018-12-20T10:10:53.499Z,7.53
2018-12-20T10:13:21.982Z,6.07
2018-12-20T10:15:50.202Z,8.80
2018-12-20T10:18:18.469Z,8.77
2018-12-20T10:20:46.770Z,8.43
2018-12-20T10:23:14.990Z,7.97
2018-12-20T10:25:43.170Z,8.83
2018-12-20T10:28:11.564Z,9.40
2018-12-20T10:30:39.721Z,10.40
2018-12-20T10:33:07.867Z,6.17
2018-12-20T10:35:36.036Z,7.00
2018-12-20T10:38:04.525Z,7.97
2018-12-20T10:40:32.706Z,5.93
2018-12-20T10:43:00.856Z,10.67
2018-12-20T10:45:29.039Z,11.27
2018-12-20T10:47:57.424Z,9.57
2018-12-20T10:50:25.658Z,5.55
2018-12-20T10:52:54.007Z,10.23
2018-12-20T10:55:22.227Z,8.80
2018-12-20T10:57:50.671Z,9.43
2018-12-20T11:00:18.937Z,7.43
2018-12-20T11:04:59.413Z,11.40
2018-12-20T11:07:33.284Z,8.23
2018-12-20T11:10:06.897Z,8.67
2018-12-20T11:12:40.454Z,6.47
2018-12-20T11:15:08.758Z,8.50
2018-12-20T11:17:37.560Z,6.70
2018-12-20T11:20:06.552Z,4.90
2018-12-20T11:22:34.787Z,5.90
2018-12-20T11:25:03.097Z,8.43
2018-12-20T11:27:31.430Z,8.43
2018-12-20T11:29:59.645Z,6.93
2018-12-20T11:32:27.787Z,10.30
2018-12-20T11:34:55.958Z,8.30
2018-12-20T11:37:24.332Z,10.57
2018-12-20T11:39:59.405Z,6.80
2018-12-20T11:42:22.701Z,8.87
2018-12-20T11:44:50.923Z,8.07
2018-12-20T11:47:24.477Z,5.30
2018-12-20T11:49:52.689Z,8.53
2018-12-20T11:52:20.827Z,7.03
2018-12-20T11:54:49.008Z,8.77
2018-12-20T11:57:17.362Z,7.03
2018-12-20T11:59:45.532Z,8.17
2018-12-20T12:02:13.760Z,8.13
2018-12-20T12:04:42.008Z,8.73
2018-12-20T12:09:56.002Z,7.10
2018-12-20T12:12:24.153Z,5.53
2018-12-20T12:14:52.433Z,8.87
2018-12-20T12:17:20.868Z,6.43
2018-12-20T12:19:48.993Z,6.97
2018-12-20T12:22:18.076Z,7.20
2018-12-20T12:24:46.207Z,5.10
2018-12-20T12:27:14.681Z,6.10
2018-12-20T12:29:43.769Z,7.97
2018-12-20T12:32:11.924Z,9.27
2018-12-20T12:34:40.240Z,5.00
2018-12-20T12:37:08.584Z,6.20
2018-12-20T12:39:36.726Z,3.73
2018-12-20T12:42:04.887Z,3.40
2018-12-20T12:44:33.065Z,8.20
2018-12-20T12:47:01.435Z,4.73
2018-12-20T12:49:29.551Z,4.67
2018-12-20T12:51:57.700Z,7.47
2018-12-20T12:54:25.834Z,5.23
2018-12-20T12:56:53.991Z,5.50
2018-12-20T12:59:22.131Z,3.73
2018-12-20T13:01:50.303Z,5.57
2018-12-20T13:04:18.480Z,3.03
2018-12-20T13:06:46.733Z,2.63
2018-12-20T13:09:14.983Z,5.43
2018-12-20T13:11:43.237Z,4.70
2018-12-20T13:14:11.364Z,4.03
2018-12-20T13:16:39.700Z,4.57
2018-12-20T13:19:08.074Z,5.12
2018-12-20T13:21:36.290Z,4.23
2018-12-20T13:24:04.518Z,3.33
2018-12-20T13:26:32.723Z,5.53
2018-12-20T13:29:01.065Z,4.87
2018-12-20T13:31:29.274Z,4.40
2018-12-20T13:33:57.410Z,5.07
2018-12-20T13:36:25.737Z,4.70
2018-12-20T13:38:54.442Z,6.67
2018-12-20T13:41:22.592Z,5.60
2018-12-20T13:43:50.794Z,5.03
2018-12-20T13:46:18.969Z,4.30
2018-12-20T13:48:47.332Z,6.87
2018-12-20T13:51:15.599Z,7.63
2018-12-20T13:53:43.758Z,7.67
2018-12-20T13:56:11.902Z,8.07
2018-12-20T13:58:40.171Z,7.23
2018-12-20T14:01:08.432Z,7.47
2018-12-20T14:03:36.577Z,9.93
2018-12-20T14:06:04.719Z,6.53
2018-12-20T14:08:32.952Z,4.20
2018-12-20T14:11:01.172Z,7.13
2018-12-20T14:13:29.301Z,6.63
2018-12-20T14:15:57.544Z,6.27
2018-12-20T14:18:30.878Z,9.17
2018-12-20T14:20:55.907Z,6.20
2018-12-20T14:23:25.242Z,7.60
2018-12-20T14:25:53.346Z,8.50
2018-12-20T14:28:21.858Z,7.00
2018-12-20T14:30:50.085Z,7.37
2018-12-20T14:33:20.454Z,7.40
2018-12-20T14:35:48.729Z,5.97
2018-12-20T14:38:17.162Z,9.43
2018-12-20T14:40:48.586Z,8.13
2018-12-20T14:43:20.997Z,5.10
2018-12-20T14:45:53.918Z,4.87
2018-12-20T14:48:29.014Z,5.63
2018-12-20T14:50:58.341Z,4.83
2018-12-20T14:53:26.570Z,6.03
2018-12-20T14:55:54.923Z,7.10
2018-12-20T14:58:24.188Z,8.30
2018-12-20T15:00:52.399Z,8.17
2018-12-20T15:03:20.553Z,6.80
2018-12-20T15:05:49.218Z,5.50
2018-12-20T15:08:18.650Z,5.30
2018-12-20T15:13:38.065Z,3.33
2018-12-20T15:16:10.856Z,8.37
2018-12-20T15:18:47.635Z,8.13
2018-12-20T15:21:13.534Z,4.83
2018-12-20T15:23:42.851Z,9.90
2018-12-20T15:26:12.854Z,8.43
2018-12-20T15:28:41.612Z,7.47
2018-12-20T15:31:09.872Z,7.40
2018-12-20T15:33:38.383Z,6.80
2018-12-20T15:36:07.208Z,7.67
2018-12-20T15:38:35.480Z,5.77
2018-12-20T15:41:03.921Z,7.53
2018-12-20T15:43:32.645Z,7.43
2018-12-20T15:46:00.770Z,6.20
2018-12-20T15:48:29.029Z,6.50
2018-12-20T15:50:57.352Z,8.40
2018-12-20T15:53:25.486Z,5.93
2018-12-20T15:55:53.636Z,5.20
2018-12-20T15:58:21.937Z,7.53
2018-12-20T16:00:56.516Z,7.33
2018-12-20T16:06:16.845Z,5.73
2018-12-20T16:08:45.122Z,6.22
2018-12-20T16:11:15.089Z,10.77
2018-12-20T16:13:43.294Z,8.70
2018-12-20T16:16:11.502Z,7.33
2018-12-20T16:18:39.845Z,7.63
2018-12-20T16:21:08.106Z,9.70
2018-12-20T16:23:36.257Z,7.17
2018-12-20T16:26:04.588Z,8.30
2018-12-20T16:28:33.092Z,8.90
2018-12-20T16:31:01.331Z,8.90
2018-12-20T16:33:29.493Z,8.83
2018-12-20T16:35:57.939Z,8.10
2018-12-20T16:38:26.260Z,9.07
2018-12-20T16:40:54.488Z,7.43
2018-12-20T16:43:22.704Z,11.23
2018-12-20T16:45:50.976Z,9.07
2018-12-20T16:48:24.218Z,7.00
2018-12-20T16:50:53.101Z,7.50
2018-12-20T16:53:21.308Z,7.57
2018-12-20T16:55:50.350Z,7.87
2018-12-20T16:58:19.078Z,8.83
2018-12-20T17:00:48.260Z,9.07
2018-12-20T17:03:16.580Z,7.70
2018-12-20T17:05:44.767Z,9.07
2018-12-20T17:08:13.138Z,7.50
2018-12-20T17:10:41.311Z,7.63
2018-12-20T17:13:09.465Z,8.67
2018-12-20T17:15:37.635Z,8.67
2018-12-20T17:18:06.565Z,8.48
2018-12-20T17:20:34.763Z,8.47
2018-12-20T17:23:02.974Z,6.20
2018-12-20T17:25:31.139Z,9.70
2018-12-20T17:27:59.607Z,5.30
2018-12-20T17:30:27.766Z,7.20
2018-12-20T17:32:55.983Z,10.30
2018-12-20T17:35:24.216Z,16.17
2018-12-20T17:37:52.642Z,13.40
2018-12-20T17:40:20.897Z,9.03
2018-12-20T17:42:49.128Z,7.53
2018-12-20T17:45:17.355Z,8.43
2018-12-20T17:47:45.842Z,9.13
2018-12-20T17:50:14.083Z,10.33
2018-12-20T17:52:42.309Z,8.17
2018-12-20T17:55:10.454Z,9.70
2018-12-20T17:57:38.914Z,9.40
2018-12-20T18:00:09.335Z,10.03
2018-12-20T18:02:37.766Z,8.87
2018-12-20T18:05:07.031Z,8.73
2018-12-20T18:07:35.755Z,7.83
2018-12-20T18:10:05.916Z,11.13
2018-12-20T18:12:34.088Z,15.87
2018-12-20T18:15:02.277Z,10.23
2018-12-20T18:17:30.479Z,9.17
2018-12-20T18:19:58.664Z,13.37
2018-12-20T18:22:26.818Z,10.47
2018-12-20T18:24:55.017Z,11.57
2018-12-20T18:27:24.338Z,10.47
2018-12-20T18:29:52.580Z,10.47
2018-12-20T18:32:20.812Z,7.07
2018-12-20T18:34:49.575Z,8.13
2018-12-20T18:37:18.321Z,12.83
2018-12-20T18:39:46.846Z,13.17
2018-12-20T18:42:15.138Z,11.67
2018-12-20T18:44:43.412Z,8.93
2018-12-20T18:47:12.912Z,10.90
2018-12-20T18:49:47.555Z,13.27
2018-12-20T18:52:11.623Z,12.03
2018-12-20T18:54:40.799Z,9.60
2018-12-20T18:57:09.255Z,11.43
2018-12-20T18:59:37.538Z,10.33
2018-12-20T19:02:05.920Z,11.70
2018-12-20T19:04:34.092Z,11.10
2018-12-20T19:07:02.548Z,9.67
2018-12-20T19:09:31.063Z,10.93
2018-12-20T19:11:59.752Z,11.47
2018-12-20T19:14:28.314Z,13.80
2018-12-20T19:16:57.652Z,9.53
2018-12-20T19:19:26.050Z,11.03
2018-12-20T19:21:54.311Z,13.13
2018-12-20T19:24:23.608Z,7.70
2018-12-20T19:26:53.045Z,9.13
2018-12-20T19:29:22.059Z,8.83
2018-12-20T19:31:51.692Z,10.77
2018-12-20T19:34:19.979Z,6.93
2018-12-20T19:36:49.115Z,8.53
2018-12-20T19:39:18.985Z,9.03
2018-12-20T19:41:47.162Z,4.57
2018-12-20T19:44:15.392Z,8.53
2018-12-20T19:46:43.902Z,5.57
2018-12-20T19:49:12.487Z,4.20
2018-12-20T19:51:41.036Z,4.73
2018-12-20T19:54:09.445Z,6.40
2018-12-20T19:56:37.660Z,5.67
2018-12-20T19:59:06.235Z,6.13
2018-12-20T20:01:35.452Z,5.47
2018-12-20T20:04:05.464Z,9.10
2018-12-20T20:06:34.751Z,9.57
2018-12-20T20:09:07.702Z,9.90
2018-12-20T20:11:36.007Z,7.47
2018-12-20T20:14:04.912Z,12.27
2018-12-20T20:16:39.263Z,11.70
2018-12-20T20:19:07.737Z,9.37
2018-12-20T20:21:38.312Z,9.97
2018-12-20T20:24:09.287Z,10.37
2018-12-20T20:26:39.544Z,11.70
2018-12-20T20:29:08.120Z,12.70
2018-12-20T20:31:38.957Z,9.20
2018-12-20T20:36:40.679Z,11.03
2018-12-20T20:39:13.225Z,12.50
2018-12-20T20:42:02.838Z,13.37
2018-12-20T20:44:31.142Z,12.87
2018-12-20T20:47:02.428Z,14.53
2018-12-20T20:49:32.617Z,11.70
2018-12-20T20:52:01.392Z,15.60
2018-12-20T20:54:36.230Z,12.63
2018-12-20T20:57:05.969Z,10.10
2018-12-20T20:59:35.617Z,10.43
2018-12-20T21:02:05.796Z,15.50
2018-12-20T21:04:33.939Z,12.17
2018-12-20T21:07:03.452Z,14.10
2018-12-20T21:09:32.672Z,11.50
2018-12-20T21:12:00.906Z,14.10
2018-12-20T21:14:30.732Z,8.67
2018-12-20T21:17:00.018Z,14.10
2018-12-20T21:19:28.188Z,13.10
2018-12-20T21:21:58.090Z,9.13
2018-12-20T21:24:26.941Z,9.53
2018-12-20T21:26:55.820Z,9.83
2018-12-20T21:29:25.262Z,12.63
2018-12-20T21:31:53.431Z,7.13
2018-12-20T21:34:22.450Z,9.10
2018-12-20T21:36:51.068Z,10.87
2018-12-20T21:39:19.526Z,8.97
2018-12-20T21:41:48.357Z,7.40
2018-12-20T21:44:16.526Z,5.70
2018-12-20T21:46:46.655Z,10.77
2018-12-20T21:49:17.003Z,11.33
2018-12-20T21:51:45.733Z,10.03
2018-12-20T21:54:14.596Z,11.77
2018-12-20T21:56:42.827Z,8.97
2018-12-20T21:59:11.244Z,7.93
2018-12-20T22:01:39.957Z,8.67
2018-12-20T22:04:08.089Z,9.90
2018-12-20T22:06:36.250Z,8.03
2018-12-20T22:09:06.499Z,5.83
2018-12-20T22:11:37.472Z,9.13
2018-12-20T22:14:05.601Z,9.07
2018-12-20T22:16:34.776Z,9.23
2018-12-20T22:19:03.404Z,7.77
2018-12-20T22:21:31.538Z,7.20
2018-12-20T22:24:00.581Z,6.57
2018-12-20T22:26:29.099Z,5.47
2018-12-20T22:28:58.397Z,9.10
2018-12-20T22:31:27.033Z,8.37
2018-12-20T22:33:55.291Z,6.70
2018-12-20T22:36:23.530Z,6.10
2018-12-20T22:38:51.778Z,6.57
2018-12-20T22:41:19.939Z,4.33
2018-12-20T22:43:48.105Z,5.57
2018-12-20T22:46:16.316Z,7.33
2018-12-20T22:48:44.655Z,7.50
2018-12-20T22:51:12.856Z,8.80
2018-12-20T22:53:41.121Z,8.73
2018-12-20T22:56:10.129Z,9.00
2018-12-20T22:58:38.670Z,6.30
2018-12-20T23:01:06.968Z,7.43
2018-12-20T23:03:35.496Z,6.67
2018-12-20T23:06:03.897Z,10.67
2018-12-20T23:08:32.390Z,11.17
2018-12-20T23:11:00.573Z,6.37
2018-12-20T23:13:29.087Z,8.10
2018-12-20T23:15:57.550Z,9.00
2018-12-20T23:18:25.737Z,6.65
2018-12-20T23:20:53.939Z,9.83
2018-12-20T23:23:22.085Z,9.90
2018-12-20T23:25:51.298Z,9.53
2018-12-20T23:28:21.646Z,8.20
2018-12-20T23:30:49.784Z,9.03
2018-12-20T23:33:17.906Z,6.40
2018-12-20T23:35:46.042Z,11.93
2018-12-20T23:38:14.505Z,7.50
2018-12-20T23:40:42.807Z,5.53
2018-12-20T23:43:11.128Z,10.33
2018-12-20T23:45:39.787Z,6.63
2018-12-20T23:48:08.797Z,9.73
2018-12-20T23:50:37.413Z,10.33
2018-12-20T23:53:06.297Z,11.12
2018-12-20T23:55:34.407Z,9.43
2018-12-20T23:58:02.711Z,7.27
